createdAt,value
2022-10-19T00:00:27.687Z,4.68
2022-10-19T00:01:27.699Z,4.77
2022-10-19T00:02:27.697Z,4.80
2022-10-19T00:03:27.699Z,4.84
2022-10-19T00:04:27.631Z,4.90
2022-10-19T00:05:27.636Z,4.93
2022-10-19T00:06:27.652Z,4.94
2022-10-19T00:07:27.582Z,4.96
2022-10-19T00:08:27.586Z,5.01
2022-10-19T00:09:27.560Z,4.99
2022-10-19T00:10:27.550Z,4.97
2022-10-19T00:11:27.571Z,4.94
2022-10-19T00:12:27.530Z,4.93
2022-10-19T00:13:27.510Z,4.90
2022-10-19T00:14:27.500Z,4.87
2022-10-19T00:15:27.499Z,4.83
2022-10-19T00:16:27.499Z,4.83
2022-10-19T00:17:27.464Z,4.75
2022-10-19T00:18:27.480Z,4.79
2022-10-19T00:19:27.438Z,4.72
2022-10-19T00:20:27.429Z,4.69
2022-10-19T00:21:27.440Z,4.65
2022-10-19T00:22:27.407Z,4.61
2022-10-19T00:23:27.376Z,4.56
2022-10-19T00:24:27.369Z,4.56
2022-10-19T00:25:27.349Z,4.50
2022-10-19T00:26:27.378Z,4.53
2022-10-19T00:27:27.380Z,4.54
2022-10-19T00:28:27.392Z,4.53
2022-10-19T00:29:27.299Z,4.54
2022-10-19T00:30:27.295Z,4.56
2022-10-19T00:31:27.308Z,4.57
2022-10-19T00:32:27.290Z,4.59
2022-10-19T00:33:27.247Z,4.64
2022-10-19T00:34:27.236Z,4.67
2022-10-19T00:35:27.227Z,4.68
2022-10-19T00:36:27.256Z,4.72
2022-10-19T00:37:27.266Z,4.68
2022-10-19T00:38:27.187Z,4.72
2022-10-19T00:39:27.177Z,4.68
2022-10-19T00:40:27.155Z,4.64
2022-10-19T00:41:27.175Z,4.67
2022-10-19T00:42:27.136Z,4.62
2022-10-19T00:43:27.130Z,4.59
2022-10-19T00:44:27.105Z,4.56
2022-10-19T00:45:27.107Z,4.53
2022-10-19T00:46:27.130Z,4.50
2022-10-19T00:47:27.075Z,4.49
2022-10-19T00:48:27.054Z,4.49
2022-10-19T00:49:27.045Z,4.47
2022-10-19T00:50:27.037Z,4.46
2022-10-19T00:51:27.076Z,4.44
2022-10-19T00:52:27.020Z,4.42
2022-10-19T00:53:26.994Z,4.46
2022-10-19T00:54:26.977Z,4.39
2022-10-19T00:55:26.967Z,4.36
2022-10-19T00:56:26.955Z,4.38
2022-10-19T00:57:27.000Z,4.36
2022-10-19T00:58:26.970Z,4.38
2022-10-19T00:59:26.913Z,4.38
2022-10-19T01:00:26.900Z,4.38
2022-10-19T01:01:26.939Z,4.38
2022-10-19T01:02:26.908Z,4.43
2022-10-19T01:03:26.883Z,4.47
2022-10-19T01:04:26.845Z,4.50
2022-10-19T01:05:26.843Z,4.53
2022-10-19T01:06:26.822Z,4.54
2022-10-19T01:07:26.844Z,4.62
2022-10-19T01:08:26.801Z,4.62
2022-10-19T01:09:26.863Z,4.61
2022-10-19T01:10:26.772Z,4.61
2022-10-19T01:11:26.771Z,4.59
2022-10-19T01:12:26.772Z,4.62
2022-10-19T01:13:26.741Z,4.64
2022-10-19T01:14:26.712Z,4.68
2022-10-19T01:15:26.712Z,4.69
2022-10-19T01:16:26.688Z,4.72
2022-10-19T01:17:26.712Z,4.77
2022-10-19T01:18:47.679Z,4.77
2022-10-19T01:19:26.651Z,4.80
2022-10-19T01:20:26.705Z,4.87
2022-10-19T01:21:26.623Z,4.90
2022-10-19T01:22:26.921Z,4.94
2022-10-19T01:23:26.601Z,4.99
2022-10-19T01:24:26.591Z,5.04
2022-10-19T01:25:26.573Z,5.08
2022-10-19T01:26:26.579Z,5.14
2022-10-19T01:27:26.557Z,5.19
2022-10-19T01:28:26.672Z,5.22
2022-10-19T01:29:26.522Z,5.27
2022-10-19T01:30:26.529Z,5.26
2022-10-19T01:31:26.496Z,5.30
2022-10-19T01:32:26.499Z,5.30
2022-10-19T01:33:26.499Z,5.37
2022-10-19T01:34:26.471Z,5.32
2022-10-19T01:35:26.473Z,5.33
2022-10-19T01:36:26.438Z,5.35
2022-10-19T01:37:26.477Z,5.42
2022-10-19T01:38:26.438Z,5.40
2022-10-19T01:39:26.401Z,5.48
2022-10-19T01:40:26.406Z,5.48
2022-10-19T01:41:26.366Z,5.48
2022-10-19T01:42:26.360Z,5.48
2022-10-19T01:43:26.369Z,5.47
2022-10-19T01:44:26.328Z,5.49
2022-10-19T01:45:26.319Z,5.45
2022-10-19T01:46:26.616Z,5.45
2022-10-19T01:47:26.287Z,5.41
2022-10-19T01:48:26.316Z,5.37
2022-10-19T01:49:26.269Z,5.35
2022-10-19T01:50:26.258Z,5.33
2022-10-19T01:51:26.239Z,5.26
2022-10-19T01:52:26.231Z,5.23
2022-10-19T01:53:26.236Z,5.24
2022-10-19T01:54:26.211Z,5.23
2022-10-19T01:55:26.183Z,5.32
2022-10-19T01:56:26.249Z,5.26
2022-10-19T01:57:26.217Z,5.30
2022-10-19T01:58:26.190Z,5.29
2022-10-19T01:59:26.125Z,5.32
2022-10-19T02:00:26.116Z,5.33
2022-10-19T02:01:26.106Z,5.37
2022-10-19T02:02:26.115Z,5.37
2022-10-19T02:03:26.198Z,5.37
2022-10-19T02:04:26.076Z,5.35
2022-10-19T02:05:26.045Z,5.30
2022-10-19T02:06:26.045Z,5.37
2022-10-19T02:07:26.032Z,5.33
2022-10-19T02:08:26.046Z,5.33
2022-10-19T02:09:26.002Z,5.29
2022-10-19T02:10:25.986Z,5.32
2022-10-19T02:11:25.978Z,5.30
2022-10-19T02:12:25.966Z,5.26
2022-10-19T02:13:25.993Z,5.27
2022-10-19T02:14:25.948Z,5.27
2022-10-19T02:15:25.917Z,5.27
2022-10-19T02:16:25.924Z,5.22
2022-10-19T02:17:25.897Z,5.22
2022-10-19T02:18:25.922Z,5.15
2022-10-19T02:19:25.874Z,5.12
2022-10-19T02:20:25.864Z,5.08
2022-10-19T02:21:29.901Z,5.01
2022-10-19T02:22:25.834Z,5.02
2022-10-19T02:23:25.816Z,4.94
2022-10-19T02:24:25.846Z,4.93
2022-10-19T02:25:25.790Z,4.87
2022-10-19T02:26:25.783Z,4.80
2022-10-19T02:27:25.783Z,4.77
2022-10-19T02:29:25.804Z,4.75
2022-10-19T02:30:25.733Z,4.79
2022-10-19T02:31:25.722Z,4.72
2022-10-19T02:32:25.702Z,4.71
2022-10-19T02:33:25.682Z,4.74
2022-10-19T02:34:25.702Z,4.74
2022-10-19T02:35:25.661Z,4.75
2022-10-19T02:36:25.651Z,4.74
2022-10-19T02:37:25.869Z,4.79
2022-10-19T02:38:25.628Z,4.84
2022-10-19T02:39:25.645Z,4.87
2022-10-19T02:40:25.608Z,4.90
2022-10-19T02:41:25.585Z,4.94
2022-10-19T02:42:25.582Z,5.01
2022-10-19T02:43:25.552Z,5.02
2022-10-19T02:44:25.580Z,5.06
2022-10-19T02:45:25.541Z,5.02
2022-10-19T02:46:25.519Z,5.01
2022-10-19T02:47:25.499Z,5.05
2022-10-19T02:48:25.490Z,5.01
2022-10-19T02:49:25.509Z,4.99
2022-10-19T02:50:25.481Z,4.99
2022-10-19T02:51:25.451Z,5.01
2022-10-19T02:52:25.449Z,5.04
2022-10-19T02:53:25.420Z,5.05
2022-10-19T02:54:25.448Z,5.06
2022-10-19T02:55:25.409Z,5.06
2022-10-19T02:56:25.388Z,5.06
2022-10-19T02:57:25.392Z,5.11
2022-10-19T02:58:25.367Z,5.14
2022-10-19T02:59:25.378Z,5.15
2022-10-19T03:00:25.339Z,5.15
2022-10-19T03:01:25.319Z,5.14
2022-10-19T03:02:25.330Z,5.09
2022-10-19T03:03:25.315Z,5.11
2022-10-19T03:04:25.328Z,5.06
2022-10-19T03:05:25.279Z,5.02
2022-10-19T03:06:25.271Z,4.97
2022-10-19T03:07:25.239Z,4.94
2022-10-19T03:08:25.264Z,4.88
2022-10-19T03:09:25.250Z,4.86
2022-10-19T03:10:25.207Z,4.83
2022-10-19T03:11:25.188Z,4.80
2022-10-19T03:12:25.186Z,4.75
2022-10-19T03:13:25.315Z,4.77
2022-10-19T03:14:25.217Z,4.74
2022-10-19T03:15:25.136Z,4.72
2022-10-19T03:16:25.126Z,4.72
2022-10-19T03:17:25.107Z,4.74
2022-10-19T03:18:25.103Z,4.77
2022-10-19T03:19:25.116Z,4.83
2022-10-19T03:20:25.087Z,4.83
2022-10-19T03:21:25.061Z,4.88
2022-10-19T03:22:25.057Z,4.91
2022-10-19T03:23:25.026Z,4.90
2022-10-19T03:24:25.066Z,4.88
2022-10-19T03:25:25.006Z,4.88
2022-10-19T03:26:25.005Z,4.96
2022-10-19T03:27:24.987Z,4.96
2022-10-19T03:28:24.982Z,5.01
2022-10-19T03:29:25.005Z,4.99
2022-10-19T03:30:24.954Z,5.02
2022-10-19T03:31:24.934Z,5.02
2022-10-19T03:32:25.006Z,5.04
2022-10-19T03:34:24.914Z,5.08
2022-10-19T03:35:24.882Z,5.17
2022-10-19T03:36:24.873Z,5.19
2022-10-19T03:37:24.843Z,5.27
2022-10-19T03:38:24.864Z,5.29
2022-10-19T03:39:24.857Z,5.33
2022-10-19T03:40:24.835Z,5.35
2022-10-19T03:41:24.795Z,5.38
2022-10-19T03:42:24.783Z,5.40
2022-10-19T03:43:24.773Z,5.38
2022-10-19T03:44:24.792Z,5.40
2022-10-19T03:45:24.758Z,5.38
2022-10-19T03:46:24.753Z,5.37
2022-10-19T03:47:24.725Z,5.37
2022-10-19T03:48:24.715Z,5.37
2022-10-19T03:49:24.729Z,5.37
2022-10-19T03:50:24.686Z,5.37
2022-10-19T03:51:24.663Z,5.37
2022-10-19T03:52:24.659Z,5.40
2022-10-19T03:53:24.652Z,5.38
2022-10-19T03:54:27.291Z,5.40
2022-10-19T03:55:24.621Z,5.41
2022-10-19T03:56:24.605Z,5.41
2022-10-19T03:57:24.612Z,5.38
2022-10-19T03:58:24.581Z,5.38
2022-10-19T03:59:24.591Z,5.38
2022-10-19T04:00:24.554Z,5.32
2022-10-19T04:01:24.569Z,5.30
2022-10-19T04:02:24.533Z,5.24
2022-10-19T04:03:24.595Z,5.22
2022-10-19T04:04:24.530Z,5.20
2022-10-19T04:05:24.483Z,5.17
2022-10-19T04:06:24.471Z,5.15
2022-10-19T04:07:24.459Z,5.12
2022-10-19T04:08:24.457Z,5.12
2022-10-19T04:09:24.463Z,5.08
2022-10-19T04:10:24.426Z,5.08
2022-10-19T04:11:28.551Z,5.06
2022-10-19T04:12:24.452Z,5.08
2022-10-19T04:13:24.379Z,5.01
2022-10-19T04:14:32.174Z,5.02
2022-10-19T04:15:25.359Z,4.99
2022-10-19T04:16:24.367Z,5.01
2022-10-19T04:17:24.329Z,4.99
2022-10-19T04:18:24.317Z,4.96
2022-10-19T04:19:24.339Z,4.91
2022-10-19T04:20:24.290Z,4.90
2022-10-19T04:21:24.283Z,4.87
2022-10-19T04:22:24.269Z,4.86
2022-10-19T04:23:24.252Z,4.79
2022-10-19T04:24:24.291Z,4.77
2022-10-19T04:25:24.221Z,4.77
2022-10-19T04:26:24.207Z,4.77
2022-10-19T04:27:24.198Z,4.77
2022-10-19T04:28:24.188Z,4.79
2022-10-19T04:29:26.447Z,4.84
2022-10-19T04:30:25.229Z,4.91
2022-10-19T04:31:24.145Z,4.97
2022-10-19T04:32:24.138Z,5.02
2022-10-19T04:33:24.128Z,5.11
2022-10-19T04:34:24.149Z,5.19
2022-10-19T04:35:24.106Z,5.23
2022-10-19T04:36:24.094Z,5.33
2022-10-19T04:37:24.066Z,5.35
2022-10-19T04:38:24.066Z,5.41
2022-10-19T04:39:24.077Z,5.48
2022-10-19T04:40:24.038Z,5.58
2022-10-19T04:41:24.006Z,5.58
2022-10-19T04:42:24.038Z,5.63
2022-10-19T04:43:24.026Z,5.67
2022-10-19T04:45:24.682Z,5.80
2022-10-19T04:46:24.905Z,5.80
2022-10-19T04:47:23.947Z,5.85
2022-10-19T04:48:23.927Z,5.87
2022-10-19T04:49:23.957Z,5.90
2022-10-19T04:50:23.905Z,5.95
2022-10-19T04:51:23.893Z,5.90
2022-10-19T04:52:23.905Z,5.95
2022-10-19T04:54:23.875Z,6.01
2022-10-19T04:55:23.849Z,6.01
2022-10-19T04:56:23.825Z,6.06
2022-10-19T04:57:23.839Z,6.06
2022-10-19T04:58:23.795Z,6.10
2022-10-19T04:59:23.887Z,6.11
2022-10-19T05:00:23.834Z,6.14
2022-10-19T05:01:24.672Z,6.17
2022-10-19T05:02:24.602Z,6.14
2022-10-19T05:03:23.740Z,6.16
2022-10-19T05:04:23.815Z,6.17
2022-10-19T05:05:23.824Z,6.19
2022-10-19T05:06:23.756Z,6.19
2022-10-19T05:07:23.682Z,6.25
2022-10-19T05:08:23.743Z,6.25
2022-10-19T05:09:23.821Z,6.25
2022-10-19T05:10:23.653Z,6.25
2022-10-19T05:11:23.644Z,6.28
2022-10-19T05:12:23.712Z,6.28
2022-10-19T05:13:23.603Z,6.35
2022-10-19T05:14:23.637Z,6.36
2022-10-19T05:15:23.585Z,6.35
2022-10-19T05:16:23.563Z,6.33
2022-10-19T05:17:23.541Z,6.36
2022-10-19T05:18:23.533Z,6.35
2022-10-19T05:19:23.531Z,6.40
2022-10-19T05:20:23.482Z,6.40
2022-10-19T05:21:23.492Z,6.40
2022-10-19T05:22:23.511Z,6.43
2022-10-19T05:23:23.505Z,6.53
2022-10-19T05:24:23.401Z,6.46
2022-10-19T05:25:23.486Z,6.51
2022-10-19T05:26:23.431Z,6.57
2022-10-19T05:27:23.421Z,6.53
2022-10-19T05:28:23.371Z,6.58
2022-10-19T05:29:23.339Z,6.65
2022-10-19T05:30:23.360Z,6.64
2022-10-19T05:31:23.421Z,6.64
2022-10-19T05:32:23.343Z,6.68
2022-10-19T05:33:23.322Z,6.69
2022-10-19T05:34:23.328Z,6.71
2022-10-19T05:35:23.301Z,6.79
2022-10-19T05:36:23.252Z,6.81
2022-10-19T05:37:23.252Z,6.79
2022-10-19T05:38:23.217Z,6.76
2022-10-19T05:39:23.211Z,6.75
2022-10-19T05:40:23.210Z,6.78
2022-10-19T05:41:23.198Z,6.81
2022-10-19T05:42:23.170Z,6.78
2022-10-19T05:43:23.160Z,6.76
2022-10-19T05:44:23.150Z,6.78
2022-10-19T05:45:23.171Z,6.89
2022-10-19T05:46:23.161Z,6.79
2022-10-19T05:47:26.211Z,6.89
2022-10-19T05:48:24.099Z,6.87
2022-10-19T05:49:23.069Z,6.89
2022-10-19T05:50:23.129Z,6.90
2022-10-19T05:51:23.048Z,6.90
2022-10-19T05:52:23.029Z,6.97
2022-10-19T05:53:23.738Z,6.94
2022-10-19T05:54:25.078Z,7.00
2022-10-19T05:55:23.027Z,6.96
2022-10-19T05:56:23.009Z,7.07
2022-10-19T05:57:22.967Z,7.08
2022-10-19T05:58:23.598Z,7.01
2022-10-19T05:59:23.569Z,7.05
2022-10-19T06:00:23.512Z,7.08
2022-10-19T06:01:22.939Z,7.11
2022-10-19T06:02:22.916Z,7.15
2022-10-19T06:03:22.919Z,7.14
2022-10-19T06:04:23.039Z,7.11
2022-10-19T06:05:22.888Z,7.23
2022-10-19T06:06:23.529Z,7.15
2022-10-19T06:07:22.908Z,7.19
2022-10-19T06:08:22.967Z,7.24
2022-10-19T06:09:22.824Z,7.19
2022-10-19T06:10:22.826Z,7.23
2022-10-19T06:11:22.878Z,7.27
2022-10-19T06:12:25.044Z,7.30
2022-10-19T06:13:22.956Z,7.29
2022-10-19T06:14:22.827Z,7.30
2022-10-19T06:15:22.847Z,7.34
2022-10-19T06:16:22.707Z,7.36
2022-10-19T06:17:22.787Z,7.41
2022-10-19T06:18:22.687Z,7.36
2022-10-19T06:19:22.870Z,7.39
2022-10-19T06:20:22.948Z,7.44
2022-10-19T06:21:22.782Z,7.50
2022-10-19T06:22:23.315Z,7.47
2022-10-19T06:23:22.626Z,7.52
2022-10-19T06:24:24.188Z,7.52
2022-10-19T06:25:22.879Z,7.58
2022-10-19T06:26:22.576Z,7.57
2022-10-19T06:27:22.667Z,7.63
2022-10-19T06:28:22.592Z,7.62
2022-10-19T06:29:22.546Z,7.66
2022-10-19T06:30:22.573Z,7.73
2022-10-19T06:31:22.526Z,7.76
2022-10-19T06:32:23.235Z,7.74
2022-10-19T06:33:22.497Z,7.77
2022-10-19T06:34:22.562Z,7.77
2022-10-19T06:35:22.495Z,7.81
2022-10-19T06:36:22.446Z,7.86
2022-10-19T06:37:22.440Z,7.86
2022-10-19T06:38:22.424Z,7.89
2022-10-19T06:39:22.412Z,7.92
2022-10-19T06:40:22.531Z,7.99
2022-10-19T06:41:22.454Z,8.00
2022-10-19T06:42:22.415Z,8.04
2022-10-19T06:43:22.430Z,8.09
2022-10-19T06:44:22.412Z,8.10
2022-10-19T06:45:22.410Z,8.06
2022-10-19T06:46:22.356Z,8.09
2022-10-19T06:47:22.304Z,8.17
2022-10-19T06:48:22.293Z,8.18
2022-10-19T06:49:22.283Z,8.18
2022-10-19T06:50:22.292Z,8.20
2022-10-19T06:51:22.287Z,8.20
2022-10-19T06:52:22.265Z,8.24
2022-10-19T06:53:22.233Z,8.24
2022-10-19T06:54:22.314Z,8.27
2022-10-19T06:55:22.230Z,8.27
2022-10-19T06:56:22.184Z,8.31
2022-10-19T06:57:22.243Z,8.37
2022-10-19T06:58:22.333Z,8.36
2022-10-19T06:59:22.295Z,8.37
2022-10-19T07:00:25.253Z,8.40
2022-10-19T07:01:23.254Z,8.37
2022-10-19T07:02:22.114Z,8.37
2022-10-19T07:03:22.213Z,8.32
2022-10-19T07:04:22.180Z,8.34
2022-10-19T07:05:22.253Z,8.36
2022-10-19T07:06:22.066Z,8.42
2022-10-19T07:07:23.022Z,8.42
2022-10-19T07:08:22.082Z,8.49
2022-10-19T07:09:22.019Z,8.49
2022-10-19T07:10:22.032Z,8.49
2022-10-19T07:11:21.992Z,8.49
2022-10-19T07:12:21.972Z,8.54
2022-10-19T07:13:21.962Z,8.52
2022-10-19T07:14:21.951Z,8.55
2022-10-19T07:15:21.979Z,8.60
2022-10-19T07:16:22.023Z,8.60
2022-10-19T07:17:21.925Z,8.64
2022-10-19T07:18:21.901Z,8.67
2022-10-19T07:19:24.423Z,8.73
2022-10-19T07:20:24.751Z,8.75
2022-10-19T07:21:21.882Z,8.79
2022-10-19T07:22:27.863Z,8.83
2022-10-19T07:23:23.470Z,8.94
2022-10-19T07:24:21.818Z,8.98
2022-10-19T07:25:22.189Z,9.06
2022-10-19T07:26:21.790Z,9.13
2022-10-19T07:27:21.916Z,9.17
2022-10-19T07:28:21.807Z,9.22
2022-10-19T07:29:21.840Z,9.26
2022-10-19T07:30:21.920Z,9.30
2022-10-19T07:31:21.739Z,9.27
2022-10-19T07:32:21.957Z,9.31
2022-10-19T07:33:21.724Z,9.30
2022-10-19T07:34:24.204Z,9.34
2022-10-19T07:35:25.350Z,9.37
2022-10-19T07:36:21.674Z,9.41
2022-10-19T07:37:21.852Z,9.38
2022-10-19T07:38:21.802Z,9.38
2022-10-19T07:39:21.619Z,9.41
2022-10-19T07:40:21.669Z,9.40
2022-10-19T07:41:21.657Z,9.42
2022-10-19T07:43:21.583Z,9.45
2022-10-19T07:44:21.608Z,9.48
2022-10-19T07:45:21.579Z,9.49
2022-10-19T07:46:21.529Z,9.53
2022-10-19T07:47:21.521Z,9.58
2022-10-19T07:48:21.961Z,9.58
2022-10-19T07:49:21.490Z,9.56
2022-10-19T07:50:21.623Z,9.59
2022-10-19T07:51:21.553Z,9.60
2022-10-19T07:52:21.452Z,9.63
2022-10-19T07:53:21.440Z,9.67
2022-10-19T07:54:21.441Z,9.73
2022-10-19T07:55:21.447Z,9.77
2022-10-19T07:56:21.391Z,9.83
2022-10-19T07:57:21.399Z,9.89
2022-10-19T07:58:21.391Z,9.92
2022-10-19T07:59:21.368Z,9.99
2022-10-19T08:00:21.369Z,10.01
2022-10-19T08:01:21.336Z,10.04
2022-10-19T08:02:21.905Z,10.06
2022-10-19T08:05:22.358Z,10.11
2022-10-19T08:06:21.290Z,10.14
2022-10-19T08:07:21.340Z,10.14
2022-10-19T08:08:21.301Z,10.13
2022-10-19T08:09:50.791Z,10.17
2022-10-19T08:10:22.700Z,10.18
2022-10-19T08:11:21.210Z,10.18
2022-10-19T08:12:21.206Z,10.16
2022-10-19T08:13:21.374Z,10.17
2022-10-19T08:14:21.159Z,10.25
2022-10-19T08:15:22.120Z,10.26
2022-10-19T08:16:21.129Z,10.31
2022-10-19T08:17:21.131Z,10.39
2022-10-19T08:18:21.148Z,10.44
2022-10-19T08:19:21.098Z,10.49
2022-10-19T08:20:21.190Z,10.54
2022-10-19T08:21:21.068Z,10.57
2022-10-19T08:22:21.075Z,10.57
2022-10-19T08:23:21.040Z,10.55
2022-10-19T08:24:21.029Z,10.49
2022-10-19T08:25:21.237Z,10.47
2022-10-19T08:26:20.998Z,10.47
2022-10-19T08:27:20.996Z,10.52
2022-10-19T08:28:20.984Z,10.54
2022-10-19T08:29:20.958Z,10.54
2022-10-19T08:30:21.039Z,10.58
2022-10-19T08:31:21.627Z,10.57
2022-10-19T08:32:21.139Z,10.58
2022-10-19T08:33:20.918Z,10.58
2022-10-19T08:34:20.908Z,10.57
2022-10-19T08:35:21.078Z,10.58
2022-10-19T08:36:20.867Z,10.63
2022-10-19T08:37:39.952Z,10.68
2022-10-19T08:38:21.836Z,10.72
2022-10-19T08:39:20.833Z,10.76
2022-10-19T08:40:20.879Z,10.76
2022-10-19T08:41:20.803Z,10.81
2022-10-19T08:42:20.809Z,10.86
2022-10-19T08:43:20.775Z,10.84
2022-10-19T08:44:20.757Z,10.84
2022-10-19T08:45:20.846Z,10.81
2022-10-19T08:46:20.729Z,10.75
2022-10-19T08:47:23.183Z,10.73
2022-10-19T08:48:20.707Z,10.75
2022-10-19T08:49:20.699Z,10.80
2022-10-19T08:50:20.784Z,10.84
2022-10-19T08:51:20.786Z,10.93
2022-10-19T08:52:20.657Z,11.03
2022-10-19T08:53:20.647Z,11.08
2022-10-19T08:54:20.627Z,11.17
2022-10-19T08:55:20.802Z,11.26
2022-10-19T08:56:38.806Z,11.30
2022-10-19T08:57:21.588Z,11.38
2022-10-19T08:58:20.616Z,11.42
2022-10-19T08:59:20.566Z,11.42
2022-10-19T09:00:20.596Z,11.48
2022-10-19T09:01:20.558Z,11.54
2022-10-19T09:02:20.583Z,11.60
2022-10-19T09:03:32.060Z,11.67
2022-10-19T09:04:21.537Z,11.74
2022-10-19T09:05:20.522Z,11.82
2022-10-19T09:06:20.491Z,11.93
2022-10-19T09:07:20.466Z,11.98
2022-10-19T09:08:20.436Z,12.04
2022-10-19T09:09:20.466Z,12.08
2022-10-19T09:10:20.579Z,12.16
2022-10-19T09:11:20.397Z,12.25
2022-10-19T09:12:20.393Z,12.33
2022-10-19T09:13:20.406Z,12.34
2022-10-19T09:14:20.486Z,12.36
2022-10-19T09:15:20.406Z,12.40
2022-10-19T09:16:20.457Z,12.40
2022-10-19T09:17:20.330Z,12.46
2022-10-19T09:18:20.319Z,12.48
2022-10-19T09:19:20.316Z,12.49
2022-10-19T09:20:20.477Z,12.56
2022-10-19T09:21:20.306Z,12.62
2022-10-19T09:22:20.256Z,12.67
2022-10-19T09:23:20.245Z,12.67
2022-10-19T09:24:20.269Z,12.67
2022-10-19T09:25:20.304Z,12.69
2022-10-19T09:26:20.208Z,12.74
2022-10-19T09:27:20.187Z,12.81
2022-10-19T09:28:20.310Z,12.95
2022-10-19T09:29:20.223Z,13.03
2022-10-19T09:30:20.184Z,12.98
2022-10-19T09:31:20.926Z,13.01
2022-10-19T09:32:20.256Z,13.06
2022-10-19T09:33:20.106Z,13.06
2022-10-19T09:34:20.099Z,13.12
2022-10-19T09:35:20.837Z,13.07
2022-10-19T09:36:33.243Z,13.10
2022-10-19T09:37:25.985Z,13.07
2022-10-19T09:38:21.216Z,13.03
2022-10-19T09:39:30.703Z,12.99
2022-10-19T09:40:20.116Z,12.99
2022-10-19T09:41:20.006Z,13.06
2022-10-19T09:42:20.065Z,12.98
2022-10-19T09:43:20.939Z,12.99
2022-10-19T09:44:20.044Z,12.95
2022-10-19T09:45:19.994Z,12.98
2022-10-19T09:46:20.558Z,12.95
2022-10-19T09:47:19.926Z,12.95
2022-10-19T09:48:19.917Z,12.92
2022-10-19T09:49:19.897Z,12.95
2022-10-19T09:50:20.002Z,12.89
2022-10-19T09:51:20.076Z,12.81
2022-10-19T09:52:24.237Z,12.74
2022-10-19T09:53:20.516Z,12.71
2022-10-19T09:54:20.076Z,12.77
2022-10-19T09:55:22.064Z,12.76
2022-10-19T09:56:20.039Z,12.71
2022-10-19T09:57:19.818Z,12.73
2022-10-19T09:58:19.857Z,12.70
2022-10-19T09:59:19.847Z,12.70
2022-10-19T10:00:19.756Z,12.63
2022-10-19T10:01:20.596Z,12.54
2022-10-19T10:02:19.729Z,12.52
2022-10-19T10:03:20.018Z,12.49
2022-10-19T10:04:19.737Z,12.56
2022-10-19T10:05:19.692Z,12.66
2022-10-19T10:06:19.707Z,12.62
2022-10-19T10:07:20.236Z,12.66
2022-10-19T10:08:19.654Z,12.69
2022-10-19T10:09:19.642Z,12.69
2022-10-19T10:10:19.677Z,12.67
2022-10-19T10:11:19.627Z,12.62
2022-10-19T10:12:19.599Z,12.59
2022-10-19T10:13:19.587Z,12.55
2022-10-19T10:14:19.581Z,12.52
2022-10-19T10:15:20.318Z,12.52
2022-10-19T10:16:19.737Z,12.54
2022-10-19T10:17:19.536Z,12.61
2022-10-19T10:18:19.988Z,12.66
2022-10-19T10:19:20.814Z,12.70
2022-10-19T10:20:19.487Z,12.74
2022-10-19T10:21:24.442Z,12.80
2022-10-19T10:22:20.466Z,12.84
2022-10-19T10:23:19.445Z,12.88
2022-10-19T10:24:20.030Z,12.80
2022-10-19T10:25:19.538Z,12.73
2022-10-19T10:26:19.437Z,12.67
2022-10-19T10:27:19.388Z,12.69
2022-10-19T10:28:19.458Z,12.71
2022-10-19T10:29:19.425Z,12.63
2022-10-19T10:30:20.326Z,12.62
2022-10-19T10:31:19.368Z,12.58
2022-10-19T10:32:19.334Z,12.56
2022-10-19T10:33:33.200Z,12.61
2022-10-19T10:34:23.170Z,12.63
2022-10-19T10:35:20.287Z,12.71
2022-10-19T10:36:19.308Z,12.76
2022-10-19T10:37:19.257Z,12.74
2022-10-19T10:38:19.254Z,12.80
2022-10-19T10:39:19.227Z,12.80
2022-10-19T10:40:22.680Z,12.84
2022-10-19T10:41:19.238Z,12.85
2022-10-19T10:42:19.198Z,12.77
2022-10-19T10:43:19.177Z,12.67
2022-10-19T10:44:19.381Z,12.59
2022-10-19T10:45:19.148Z,12.56
2022-10-19T10:46:19.178Z,12.61
2022-10-19T10:47:19.127Z,12.58
2022-10-19T10:48:19.119Z,12.63
2022-10-19T10:49:19.097Z,12.62
2022-10-19T10:50:19.106Z,12.62
2022-10-19T10:51:19.139Z,12.67
2022-10-19T10:52:19.065Z,12.73
2022-10-19T10:53:19.058Z,12.73
2022-10-19T10:54:19.038Z,12.71
2022-10-19T10:55:19.019Z,12.73
2022-10-19T10:56:19.045Z,12.77
2022-10-19T10:57:19.074Z,12.76
2022-10-19T10:58:18.988Z,12.81
2022-10-19T10:59:18.967Z,12.88
2022-10-19T11:00:18.968Z,12.92
2022-10-19T11:01:19.062Z,12.96
2022-10-19T11:02:19.074Z,12.99
2022-10-19T11:03:19.789Z,13.04
2022-10-19T11:04:18.909Z,13.12
2022-10-19T11:05:18.926Z,13.13
2022-10-19T11:06:19.171Z,13.14
2022-10-19T11:07:18.857Z,13.16
2022-10-19T11:08:18.866Z,13.14
2022-10-19T11:09:18.840Z,13.17
2022-10-19T11:10:18.827Z,13.14
2022-10-19T11:11:18.837Z,13.12
2022-10-19T11:12:18.804Z,13.07
2022-10-19T11:13:18.778Z,13.06
2022-10-19T11:14:18.775Z,13.10
2022-10-19T11:15:18.802Z,13.12
2022-10-19T11:16:18.788Z,13.12
2022-10-19T11:17:18.738Z,13.16
2022-10-19T11:18:18.718Z,13.19
2022-10-19T11:19:18.707Z,13.17
2022-10-19T11:20:18.690Z,13.17
2022-10-19T11:21:18.717Z,13.16
2022-10-19T11:22:21.249Z,13.19
2022-10-19T11:23:19.796Z,13.21
2022-10-19T11:24:18.785Z,13.31
2022-10-19T11:25:18.646Z,13.46
2022-10-19T11:26:18.638Z,13.50
2022-10-19T11:27:18.617Z,13.63
2022-10-19T11:28:18.588Z,13.65
2022-10-19T11:29:18.568Z,13.63
2022-10-19T11:30:18.559Z,13.53
2022-10-19T11:31:18.568Z,13.57
2022-10-19T11:32:18.536Z,13.62
2022-10-19T11:33:19.357Z,13.66
2022-10-19T11:34:20.182Z,13.62
2022-10-19T11:35:18.511Z,13.57
2022-10-19T11:36:19.258Z,13.53
2022-10-19T11:37:18.738Z,13.50
2022-10-19T11:38:20.836Z,13.55
2022-10-19T11:39:18.444Z,13.51
2022-10-19T11:40:21.951Z,13.57
2022-10-19T11:41:19.305Z,13.57
2022-10-19T11:42:18.431Z,13.63
2022-10-19T11:43:19.105Z,13.71
2022-10-19T11:44:18.509Z,13.73
2022-10-19T11:45:18.405Z,13.71
2022-10-19T11:46:18.469Z,13.61
2022-10-19T11:47:18.358Z,13.55
2022-10-19T11:48:18.318Z,13.46
2022-10-19T11:49:18.308Z,13.35
2022-10-19T11:50:18.419Z,13.27
2022-10-19T11:51:21.856Z,13.16
2022-10-19T11:52:18.549Z,13.07
2022-10-19T11:53:18.257Z,12.98
2022-10-19T11:54:18.238Z,12.95
2022-10-19T11:55:18.230Z,12.80
2022-10-19T11:56:18.251Z,12.80
2022-10-19T11:57:18.198Z,12.81
2022-10-19T11:58:19.168Z,12.79
2022-10-19T11:59:18.179Z,12.77
2022-10-19T12:00:37.773Z,12.79
2022-10-19T12:01:19.178Z,12.79
2022-10-19T12:02:18.234Z,12.84
2022-10-19T12:03:18.120Z,12.89
2022-10-19T12:04:18.111Z,12.89
2022-10-19T12:05:18.158Z,12.85
2022-10-19T12:06:18.116Z,12.84
2022-10-19T12:07:18.059Z,12.81
2022-10-19T12:09:18.079Z,12.89
2022-10-19T12:10:18.059Z,13.04
2022-10-19T12:11:18.019Z,13.03
2022-10-19T12:12:18.008Z,13.13
2022-10-19T12:13:17.981Z,13.19
2022-10-19T12:14:17.978Z,13.24
2022-10-19T12:15:17.988Z,13.25
2022-10-19T12:16:17.949Z,13.28
2022-10-19T12:17:17.931Z,13.21
2022-10-19T12:18:17.930Z,13.12
2022-10-19T12:19:17.898Z,13.12
2022-10-19T12:20:19.826Z,13.09
2022-10-19T12:21:17.883Z,13.06
2022-10-19T12:22:17.871Z,12.98
2022-10-19T12:23:17.850Z,12.95
2022-10-19T12:24:17.840Z,12.96
2022-10-19T12:25:20.644Z,12.96
2022-10-19T12:27:17.801Z,13.07
2022-10-19T12:28:17.790Z,13.10
2022-10-19T12:29:17.770Z,13.14
2022-10-19T12:30:17.790Z,13.16
2022-10-19T12:31:17.809Z,13.21
2022-10-19T12:32:17.736Z,13.24
2022-10-19T12:33:17.720Z,13.31
2022-10-19T12:34:18.150Z,13.39
2022-10-19T12:35:17.709Z,13.41
2022-10-19T12:36:17.680Z,13.43
2022-10-19T12:37:17.671Z,13.44
2022-10-19T12:38:17.789Z,13.46
2022-10-19T12:39:17.865Z,13.43
2022-10-19T12:40:18.040Z,13.29
2022-10-19T12:41:17.610Z,13.28
2022-10-19T12:42:17.731Z,13.28
2022-10-19T12:43:17.627Z,13.19
2022-10-19T12:44:17.644Z,13.13
2022-10-19T12:45:17.592Z,13.01
2022-10-19T12:46:17.550Z,12.98
2022-10-19T12:47:17.537Z,12.89
2022-10-19T12:48:17.519Z,12.84
2022-10-19T12:49:17.509Z,12.74
2022-10-19T12:50:17.589Z,12.70
2022-10-19T12:51:17.482Z,12.63
2022-10-19T12:52:17.469Z,12.58
2022-10-19T12:53:17.482Z,12.51
2022-10-19T12:54:17.591Z,12.48
2022-10-19T12:55:17.460Z,12.49
2022-10-19T12:56:17.489Z,12.40
2022-10-19T12:57:21.905Z,12.36
2022-10-19T12:58:19.362Z,12.34
2022-10-19T12:59:17.370Z,12.48
2022-10-19T13:00:17.390Z,12.69
2022-10-19T13:01:17.417Z,12.88
2022-10-19T13:02:17.432Z,13.10
2022-10-19T13:03:17.351Z,13.27
2022-10-19T13:04:17.313Z,13.44
2022-10-19T13:05:17.421Z,13.53
2022-10-19T13:06:17.439Z,13.55
2022-10-19T13:07:17.261Z,13.47
2022-10-19T13:08:18.200Z,13.43
2022-10-19T13:09:17.239Z,13.36
2022-10-19T13:10:17.259Z,13.29
2022-10-19T13:11:17.242Z,13.29
2022-10-19T13:12:21.390Z,13.19
2022-10-19T13:13:18.180Z,13.07
2022-10-19T13:14:17.179Z,12.92
2022-10-19T13:15:17.190Z,12.77
2022-10-19T13:16:17.151Z,12.67
2022-10-19T13:17:17.130Z,12.58